Wetterdaten: aktuell Mittwoch, 21.11.2018 17:15
Datum Zeit Temp. A. Regen Wind Richtung Richtung Sonnenschein ET UV Solar Taupunkt Windchill Windben
21.11.2018 17:15 2,3 C 0,0 l/m 0,0 km/h - - 0 0 min 0,000 mm 0,0 UV-I 0 W/m 0,7 C 2,3 C 0,0 km/h
21.11.2018 16:15 2,8 C 0,0 l/m 0,0 km/h S-SO 159 0 min 0,000 mm 0,0 UV-I 0 W/m 1,0 C 2,8 C 0,0 km/h
21.11.2018 15:15 2,8 C 0,0 l/m 0,0 km/h S-SO 149 0 min 0,025 mm 0,0 UV-I 14 W/m 1,0 C 2,8 C 0,0 km/h
21.11.2018 14:15 3,0 C 0,0 l/m 0,0 km/h S 171 0 min 0,026 mm 0,0 UV-I 46 W/m 1,2 C 3,0 C 0,0 km/h
21.11.2018 13:15 2,7 C 0,0 l/m 0,0 km/h S-SO 157 0 min 0,025 mm 0,0 UV-I 69 W/m 1,2 C 2,7 C 0,0 km/h
21.11.2018 12:15 2,2 C 0,0 l/m 0,0 km/h SO 146 0 min 0,026 mm 0,0 UV-I 65 W/m 1,0 C 2,2 C 0,0 km/h
21.11.2018 11:15 1,5 C 0,0 l/m 0,0 km/h S-SO 159 0 min 0,025 mm 0,0 UV-I 67 W/m 0,3 C 1,5 C 0,0 km/h
21.11.2018 10:15 1,1 C 0,0 l/m 0,0 km/h S-SW 199 0 min 0,000 mm 0,0 UV-I 49 W/m -0,1 C 1,1 C 0,0 km/h
21.11.2018 09:15 0,8 C 0,0 l/m 0,0 km/h S-SO 163 0 min 0,000 mm 0,0 UV-I 25 W/m -0,5 C 0,8 C 0,0 km/h
21.11.2018 08:15 0,7 C 0,0 l/m 0,0 km/h S 172 0 min 0,000 mm 0,0 UV-I 9 W/m -0,6 C 0,7 C 0,0 km/h
21.11.2018 07:15 0,6 C 0,0 l/m 0,0 km/h S-SO 167 0 min 0,000 mm 0,0 UV-I 0 W/m -0,7 C 0,6 C 0,0 km/h
21.11.2018 06:15 0,3 C 0,0 l/m 0,0 km/h S-SO 149 0 min 0,000 mm 0,0 UV-I 0 W/m -1,0 C 0,3 C 0,0 km/h
21.11.2018 05:15 0,0 C 0,0 l/m 0,0 km/h SO 140 0 min 0,000 mm 0,0 UV-I 0 W/m -1,3 C 0,0 C 0,0 km/h
21.11.2018 04:15 -2,0 C 0,0 l/m 0,0 km/h SO 132 0 min 0,000 mm 0,0 UV-I 0 W/m -3,3 C -2,0 C 0,0 km/h
21.11.2018 03:15 -4,6 C 0,0 l/m 0,0 km/h SO 132 0 min 0,000 mm 0,0 UV-I 0 W/m -5,7 C -4,6 C 0,0 km/h
21.11.2018 02:15 -4,2 C 0,0 l/m 0,0 km/h SO 132 0 min 0,000 mm 0,0 UV-I 0 W/m -5,3 C -4,2 C 0,0 km/h
21.11.2018 01:15 -3,9 C 0,0 l/m 0,0 km/h SO 132 0 min 0,000 mm 0,0 UV-I 0 W/m -5,0 C -3,9 C 0,0 km/h
21.11.2018 00:15 -3,8 C 0,0 l/m 0,0 km/h SO 132 0 min 0,000 mm 0,0 UV-I 0 W/m -4,9 C -3,8 C 0,0 km/h
20.11.2018 23:15 -2,9 C 0,0 l/m 0,0 km/h SO 132 0 min 0,000 mm 0,0 UV-I 0 W/m -4,0 C -2,9 C 0,0 km/h
20.11.2018 22:15 -2,3 C 0,0 l/m 0,0 km/h SO 132 0 min 0,000 mm 0,0 UV-I 0 W/m -3,4 C -2,3 C 0,0 km/h
20.11.2018 21:15 -1,7 C 0,0 l/m 0,0 km/h SO 132 0 min 0,000 mm 0,0 UV-I 0 W/m -2,8 C -1,7 C 0,0 km/h
20.11.2018 20:15 -1,3 C 0,0 l/m 0,0 km/h SO 132 0 min 0,000 mm 0,0 UV-I 0 W/m -2,4 C -1,3 C 0,0 km/h
20.11.2018 19:15 -0,2 C 0,0 l/m 0,0 km/h SO 132 0 min 0,000 mm 0,0 UV-I 0 W/m -1,3 C -0,2 C 0,0 km/h
20.11.2018 18:15 1,1 C 0,0 l/m 0,0 km/h SO 132 0 min 0,000 mm 0,0 UV-I 0 W/m -0,2 C 1,1 C 0,0 km/h
20.11.2018 18:00 1,7 C 0,0 l/m 0,0 km/h SO 132 0 min 0,000 mm 0,0 UV-I 0 W/m 0,4 C 1,7 C 0,0 km/h
_ Min-Zeit 02:55 - 18:00 - - - - - - 02:55 02:55 18:00
Minimum _ -4,7 C - 0,0 km/h - - - - - - -5,8 C -4,7 C 0,0 km/h
_ Max-Zeit 14:25 18:00 18:00 - - 18:00 12:00 18:00 11:25 14:05 14:05 18:00
Maximum _ 3,1 C 0,0 l/m 0,0 km/h
SO
- - 0 min 0,026 mm 0,0 UV-I 72 W/m 1,4 C 3,0 C 0,0 km/h
- -
Durchschnitt _ -0,1 C #0,0 l/m 0,0 km/h - - - #0 min. #0,127 mm 0,0 UV-I 42 W/m -1,4 C -0,1 C 0,0 km/h